EGJJ Airport Information

Runway Information
Runway 08 Length 5597 ft width 148 ft
Elevation 270 ft Threshold 200 ft Heading 83
Runway 26 Length 5597 ft Width 148 ft
Elevation 271 ft Threshold 299 ft Heading 263
Airport Frequencies
Type APP Name APP Frequency 120.3 MHZ
Type ATIS Name INFO Frequency 112.2 MHZ
Type GND Name GND Frequency 121.9 MHZ
Type RDR Name RDR Frequency 118.55 MHZ
Type TWR Name TWR Frequency 119.45 MHZ
Airport Navaids
Type VOR-DME Name Jersey Frequency 112200 KHZ
Airport Weather Information & NOTAM
ADDS - METARS form results

(0519 UTC 03 December 2022)
Data provider http://aviationweather.gov/metar/data/
 
METAR text: EGJJ 030450Z AUTO 07015G26KT 020V100 9999 FEW022/// SCT032/// OVC043/// 06/03 Q1018
Conditions at: EGJJ (JERSEY AIRPORT , JE) observed 0450 UTC 03 December 2022
Temperature: 6.0°C (43°F)
Dewpoint: 3.0°C (37°F) [RH = 81%]
Pressure (altimeter): 30.06 inches Hg (1018.0 mb)
Winds: from the ENE (70 degrees) at 17 MPH (15 knots; 7.7 m/s)
gusting to 30 MPH (26 knots; 13.4 m/s)
Visibility: 6 or more miles (10+ km)
Ceiling: 4300 feet AGL
Clouds: few clouds at 2200 feet AGL
scattered clouds at 3200 feet AGL
overcast cloud deck at 4300 feet AGL
Weather: no significant weather observed at this time

METAR text: EGJJ 030420Z AUTO 06016KT 030V100 9999 FEW020/// BKN030/// OVC037/// 07/04 Q1018
Conditions at: EGJJ (JERSEY AIRPORT , JE) observed 0420 UTC 03 December 2022
Temperature: 7.0°C (45°F)
Dewpoint: 4.0°C (39°F) [RH = 81%]
Pressure (altimeter): 30.06 inches Hg (1018.0 mb)
Winds: from the ENE (60 degrees) at 18 MPH (16 knots; 8.2 m/s)
Visibility: 6 or more miles (10+ km)
Ceiling: 3000 feet AGL
Clouds: few clouds at 2000 feet AGL
broken clouds at 3000 feet AGL
overcast cloud deck at 3700 feet AGL
Weather: no significant weather observed at this time

Forecast for: EGJJ (JERSEY AIRPORT , JE)
Text: TAF EGJJ 030454Z 0306/0315 05012KT 9999 FEW020 BKN040
Forecast period: 0600 to 1500 UTC 03 December 2022
Forecast type: FROM: standard forecast or significant change
Winds: from the NE (50 degrees) at 14 MPH (12 knots; 6.2 m/s)
Visibility: 6 or more miles (10+ km)
Ceiling: 4000 feet AGL
Clouds: few clouds at 2000 feet AGL
broken clouds at 4000 feet AGL
Weather: no significant weather forecast for this period
Text: PROB40
Forecast period: 0600 to 1200 UTC 03 December 2022
Forecast type: TEMPORARY: The following changes expected for less than half the time period
Winds: from the ENE (70 degrees) at 17 MPH (15 knots; 7.7 m/s)
gusting to 31 MPH (27 knots; 13.9 m/s)
Visibility: 5 miles (8 km)
Ceiling: 1600 feet AGL
Clouds: broken clouds at 1600 feet AGL
Weather: SHRA  (rain showers)